sensor_id;sensor_type;location;lat;lon;timestamp;pressure;altitude;pressure_sealevel;temperature;humidity
77824;BME280;67015;46.242;6.028;2023-02-15T00:29:35;98008.0;;;-1.6;91.59
77824;BME280;67015;46.242;6.028;2023-02-15T01:29:36;98005.0;;;-1.79;91.79
77824;BME280;67015;46.242;6.028;2023-02-15T02:29:41;97985.0;;;-2.16;92.99
77824;BME280;67015;46.242;6.028;2023-02-15T02:59:36;97971.0;;;-2.51;93.54
77824;BME280;67015;46.242;6.028;2023-02-15T03:29:35;97972.0;;;-2.59;92.4
77824;BME280;67015;46.242;6.028;2023-02-15T03:59:35;97961.0;;;-2.87;93.83
77824;BME280;67015;46.242;6.028;2023-02-15T04:29:35;97983.0;;;-2.93;93.97
77824;BME280;67015;46.242;6.028;2023-02-15T04:59:35;97984.0;;;-3.08;94.03
77824;BME280;67015;46.242;6.028;2023-02-15T05:29:35;97972.0;;;-3.28;94.79
77824;BME280;67015;46.242;6.028;2023-02-15T05:59:35;97984.0;;;-3.38;94.63
77824;BME280;67015;46.242;6.028;2023-02-15T06:29:35;98000.0;;;-3.51;94.35
77824;BME280;67015;46.242;6.028;2023-02-15T06:59:35;98012.0;;;-3.62;94.84
77824;BME280;67015;46.242;6.028;2023-02-15T07:29:35;98015.0;;;-3.25;95.21
77824;BME280;67015;46.242;6.028;2023-02-15T07:59:35;98002.0;;;-2.17;93.59
77824;BME280;67015;46.242;6.028;2023-02-15T08:29:35;97980.0;;;-0.37;88.32
77824;BME280;67015;46.242;6.028;2023-02-15T08:59:35;97945.0;;;1.0;87.56
77824;BME280;67015;46.242;6.028;2023-02-15T09:59:36;97937.0;;;4.4;79.41
77824;BME280;67015;46.242;6.028;2023-02-15T10:29:35;97892.0;;;9.58;58.56
77824;BME280;67015;46.242;6.028;2023-02-15T10:59:38;97881.0;;;9.93;57.54
77824;BME280;67015;46.242;6.028;2023-02-15T11:29:36;97826.0;;;10.94;53.6
77824;BME280;67015;46.242;6.028;2023-02-15T11:59:35;97809.0;;;11.84;51.56
77824;BME280;67015;46.242;6.028;2023-02-15T12:29:35;97776.0;;;12.87;50.75
77824;BME280;67015;46.242;6.028;2023-02-15T13:29:35;97752.0;;;13.3;47.2
77824;BME280;67015;46.242;6.028;2023-02-15T14:29:41;97688.0;;;13.92;47.09
77824;BME280;67015;46.242;6.028;2023-02-15T14:59:36;97681.0;;;13.75;46.58
77824;BME280;67015;46.242;6.028;2023-02-15T15:29:38;97685.0;;;12.34;50.36
77824;BME280;67015;46.242;6.028;2023-02-15T15:59:35;97707.0;;;11.72;54.51
77824;BME280;67015;46.242;6.028;2023-02-15T16:29:35;97729.0;;;10.75;58.21
77824;BME280;67015;46.242;6.028;2023-02-15T16:59:35;97750.0;;;9.13;60.67
77824;BME280;67015;46.242;6.028;2023-02-15T17:29:35;97789.0;;;7.61;67.9
77824;BME280;67015;46.242;6.028;2023-02-15T17:59:34;97797.0;;;6.12;73.64
77824;BME280;67015;46.242;6.028;2023-02-15T18:29:34;97814.0;;;4.86;75.66
77824;BME280;67015;46.242;6.028;2023-02-15T18:59:34;97825.0;;;3.89;78.77
77824;BME280;67015;46.242;6.028;2023-02-15T20:29:34;97837.0;;;3.0;81.49
77824;BME280;67015;46.242;6.028;2023-02-15T20:29:34;97840.0;;;2.3;82.67
77824;BME280;67015;46.242;6.028;2023-02-15T20:29:35;97836.0;;;1.81;83.43
77824;BME280;67015;46.242;6.028;2023-02-15T20:59:39;97841.0;;;1.2;85.32
77824;BME280;67015;46.242;6.028;2023-02-15T21:29:34;97842.0;;;0.79;86.2
77824;BME280;67015;46.242;6.028;2023-02-15T21:59:34;97849.0;;;0.76;85.92
77824;BME280;67015;46.242;6.028;2023-02-15T22:29:34;97849.0;;;0.18;87.6
77824;BME280;67015;46.242;6.028;2023-02-15T22:59:34;97837.0;;;-0.43;88.17
77824;BME280;67015;46.242;6.028;2023-02-15T23:29:34;97861.0;;;-0.77;89.06
77824;BME280;67015;46.242;6.028;2023-02-15T23:59:34;97872.0;;;-1.05;89.82
